sensor_id;sensor_type;location;lat;lon;timestamp;P1;durP1;ratioP1;P2;durP2;ratioP2
75435;SDS011;64014;53.432;14.534;2023-04-07T00:00:11;11.68;;;7.28;;
75435;SDS011;64014;53.432;14.534;2023-04-07T00:02:37;13.10;;;7.10;;
75435;SDS011;64014;53.432;14.534;2023-04-07T00:05:03;13.23;;;6.28;;
75435;SDS011;64014;53.432;14.534;2023-04-07T00:07:29;15.05;;;6.00;;
75435;SDS011;64014;53.432;14.534;2023-04-07T00:09:55;13.65;;;6.70;;
75435;SDS011;64014;53.432;14.534;2023-04-07T00:12:22;15.80;;;6.88;;
75435;SDS011;64014;53.432;14.534;2023-04-07T00:14:48;13.18;;;6.95;;
75435;SDS011;64014;53.432;14.534;2023-04-07T00:17:14;11.00;;;6.90;;
75435;SDS011;64014;53.432;14.534;2023-04-07T00:19:40;14.63;;;6.95;;
75435;SDS011;64014;53.432;14.534;2023-04-07T00:22:07;15.98;;;6.00;;
75435;SDS011;64014;53.432;14.534;2023-04-07T00:24:34;13.10;;;6.07;;
75435;SDS011;64014;53.432;14.534;2023-04-07T00:27:00;14.43;;;6.50;;
75435;SDS011;64014;53.432;14.534;2023-04-07T00:29:26;12.80;;;5.60;;
75435;SDS011;64014;53.432;14.534;2023-04-07T00:31:52;11.52;;;6.18;;
75435;SDS011;64014;53.432;14.534;2023-04-07T00:34:19;11.40;;;5.35;;
75435;SDS011;64014;53.432;14.534;2023-04-07T00:36:45;10.13;;;4.55;;
75435;SDS011;64014;53.432;14.534;2023-04-07T00:39:16;9.65;;;4.43;;
75435;SDS011;64014;53.432;14.534;2023-04-07T00:41:43;14.30;;;5.32;;
75435;SDS011;64014;53.432;14.534;2023-04-07T00:44:09;11.52;;;5.25;;
75435;SDS011;64014;53.432;14.534;2023-04-07T00:46:35;11.48;;;5.25;;
75435;SDS011;64014;53.432;14.534;2023-04-07T00:49:02;12.02;;;4.32;;
75435;SDS011;64014;53.432;14.534;2023-04-07T00:51:28;10.73;;;4.38;;
75435;SDS011;64014;53.432;14.534;2023-04-07T00:53:55;11.88;;;5.28;;
75435;SDS011;64014;53.432;14.534;2023-04-07T00:56:21;12.82;;;4.93;;
75435;SDS011;64014;53.432;14.534;2023-04-07T00:58:47;10.95;;;5.03;;
75435;SDS011;64014;53.432;14.534;2023-04-07T01:01:28;10.38;;;5.25;;
75435;SDS011;64014;53.432;14.534;2023-04-07T01:06:25;15.48;;;6.38;;
75435;SDS011;64014;53.432;14.534;2023-04-07T01:09:17;17.52;;;8.98;;
75435;SDS011;64014;53.432;14.534;2023-04-07T01:12:04;13.27;;;5.13;;
75435;SDS011;64014;53.432;14.534;2023-04-07T01:14:33;11.63;;;5.13;;
75435;SDS011;64014;53.432;14.534;2023-04-07T01:17:02;11.32;;;5.88;;
75435;SDS011;64014;53.432;14.534;2023-04-07T01:26:59;9.90;;;3.78;;
75435;SDS011;64014;53.432;14.534;2023-04-07T01:29:36;8.70;;;3.60;;
75435;SDS011;64014;53.432;14.534;2023-04-07T01:32:04;8.93;;;3.83;;
75435;SDS011;64014;53.432;14.534;2023-04-07T01:34:32;10.10;;;4.70;;
75435;SDS011;64014;53.432;14.534;2023-04-07T01:37:00;11.38;;;4.38;;
75435;SDS011;64014;53.432;14.534;2023-04-07T01:39:27;13.93;;;4.40;;
75435;SDS011;64014;53.432;14.534;2023-04-07T01:41:54;8.05;;;3.63;;
75435;SDS011;64014;53.432;14.534;2023-04-07T01:44:20;10.07;;;4.43;;
75435;SDS011;64014;53.432;14.534;2023-04-07T01:46:47;7.47;;;3.38;;
75435;SDS011;64014;53.432;14.534;2023-04-07T01:49:17;11.10;;;4.25;;
75435;SDS011;64014;53.432;14.534;2023-04-07T01:51:43;8.35;;;3.67;;
75435;SDS011;64014;53.432;14.534;2023-04-07T01:54:14;9.52;;;3.22;;
75435;SDS011;64014;53.432;14.534;2023-04-07T01:56:42;7.72;;;2.97;;
75435;SDS011;64014;53.432;14.534;2023-04-07T01:59:08;7.15;;;3.45;;
75435;SDS011;64014;53.432;14.534;2023-04-07T02:01:35;7.13;;;3.55;;
75435;SDS011;64014;53.432;14.534;2023-04-07T02:04:07;8.80;;;3.33;;
75435;SDS011;64014;53.432;14.534;2023-04-07T02:06:39;6.07;;;2.72;;
75435;SDS011;64014;53.432;14.534;2023-04-07T02:09:06;6.43;;;3.45;;
75435;SDS011;64014;53.432;14.534;2023-04-07T02:11:35;7.00;;;3.22;;
75435;SDS011;64014;53.432;14.534;2023-04-07T02:14:03;8.10;;;3.25;;
75435;SDS011;64014;53.432;14.534;2023-04-07T02:16:29;8.65;;;3.50;;
75435;SDS011;64014;53.432;14.534;2023-04-07T02:18:56;5.93;;;2.42;;
75435;SDS011;64014;53.432;14.534;2023-04-07T02:21:23;7.60;;;3.28;;
75435;SDS011;64014;53.432;14.534;2023-04-07T02:23:50;8.48;;;3.08;;
75435;SDS011;64014;53.432;14.534;2023-04-07T02:26:16;9.15;;;3.50;;
75435;SDS011;64014;53.432;14.534;2023-04-07T02:28:42;7.78;;;2.85;;
75435;SDS011;64014;53.432;14.534;2023-04-07T02:31:08;7.32;;;2.97;;
75435;SDS011;64014;53.432;14.534;2023-04-07T02:33:37;8.23;;;3.08;;
75435;SDS011;64014;53.432;14.534;2023-04-07T02:36:03;9.45;;;3.05;;
75435;SDS011;64014;53.432;14.534;2023-04-07T02:38:30;8.07;;;3.30;;
75435;SDS011;64014;53.432;14.534;2023-04-07T02:40:56;8.07;;;3.13;;
75435;SDS011;64014;53.432;14.534;2023-04-07T02:43:23;8.10;;;3.30;;
75435;SDS011;64014;53.432;14.534;2023-04-07T02:45:50;8.93;;;3.55;;
75435;SDS011;64014;53.432;14.534;2023-04-07T02:48:16;9.30;;;4.28;;
75435;SDS011;64014;53.432;14.534;2023-04-07T02:50:42;8.40;;;3.17;;
75435;SDS011;64014;53.432;14.534;2023-04-07T02:53:09;10.38;;;3.15;;
75435;SDS011;64014;53.432;14.534;2023-04-07T02:55:35;8.60;;;4.78;;
75435;SDS011;64014;53.432;14.534;2023-04-07T02:58:01;8.90;;;3.25;;
75435;SDS011;64014;53.432;14.534;2023-04-07T03:00:27;11.30;;;3.67;;
75435;SDS011;64014;53.432;14.534;2023-04-07T03:02:53;9.45;;;3.47;;
75435;SDS011;64014;53.432;14.534;2023-04-07T03:05:20;10.68;;;3.58;;
75435;SDS011;64014;53.432;14.534;2023-04-07T03:07:46;8.93;;;3.50;;
75435;SDS011;64014;53.432;14.534;2023-04-07T03:10:12;8.23;;;3.08;;
75435;SDS011;64014;53.432;14.534;2023-04-07T03:12:38;8.35;;;3.40;;
75435;SDS011;64014;53.432;14.534;2023-04-07T03:15:05;9.23;;;3.05;;
75435;SDS011;64014;53.432;14.534;2023-04-07T03:17:31;6.68;;;2.70;;
75435;SDS011;64014;53.432;14.534;2023-04-07T03:19:58;9.02;;;3.20;;
75435;SDS011;64014;53.432;14.534;2023-04-07T03:22:24;8.73;;;4.32;;
75435;SDS011;64014;53.432;14.534;2023-04-07T03:24:50;7.45;;;4.13;;
75435;SDS011;64014;53.432;14.534;2023-04-07T03:27:16;10.38;;;3.88;;
75435;SDS011;64014;53.432;14.534;2023-04-07T03:29:44;8.25;;;3.13;;
75435;SDS011;64014;53.432;14.534;2023-04-07T03:32:10;11.27;;;3.47;;
75435;SDS011;64014;53.432;14.534;2023-04-07T03:34:37;6.82;;;2.85;;
75435;SDS011;64014;53.432;14.534;2023-04-07T03:37:03;9.60;;;3.70;;
75435;SDS011;64014;53.432;14.534;2023-04-07T03:39:29;10.43;;;3.65;;
75435;SDS011;64014;53.432;14.534;2023-04-07T03:41:56;10.60;;;3.60;;
75435;SDS011;64014;53.432;14.534;2023-04-07T03:44:22;8.32;;;3.08;;
75435;SDS011;64014;53.432;14.534;2023-04-07T03:46:48;9.40;;;3.95;;
75435;SDS011;64014;53.432;14.534;2023-04-07T03:49:15;8.68;;;3.22;;
75435;SDS011;64014;53.432;14.534;2023-04-07T03:51:41;10.50;;;4.03;;
75435;SDS011;64014;53.432;14.534;2023-04-07T03:54:07;10.48;;;4.63;;
75435;SDS011;64014;53.432;14.534;2023-04-07T03:56:33;12.23;;;4.88;;
75435;SDS011;64014;53.432;14.534;2023-04-07T03:58:59;9.70;;;3.53;;
75435;SDS011;64014;53.432;14.534;2023-04-07T04:01:25;8.07;;;3.28;;
75435;SDS011;64014;53.432;14.534;2023-04-07T04:03:52;10.00;;;4.18;;
75435;SDS011;64014;53.432;14.534;2023-04-07T04:06:18;9.70;;;4.30;;
75435;SDS011;64014;53.432;14.534;2023-04-07T04:08:44;7.32;;;3.42;;
75435;SDS011;64014;53.432;14.534;2023-04-07T04:11:10;8.60;;;3.50;;
75435;SDS011;64014;53.432;14.534;2023-04-07T04:13:37;8.10;;;3.53;;
75435;SDS011;64014;53.432;14.534;2023-04-07T04:16:03;10.13;;;3.80;;
75435;SDS011;64014;53.432;14.534;2023-04-07T04:18:29;9.00;;;3.72;;
75435;SDS011;64014;53.432;14.534;2023-04-07T04:20:55;13.02;;;3.83;;
75435;SDS011;64014;53.432;14.534;2023-04-07T04:23:22;9.80;;;4.80;;
75435;SDS011;64014;53.432;14.534;2023-04-07T04:25:48;11.00;;;3.72;;
75435;SDS011;64014;53.432;14.534;2023-04-07T04:28:14;8.80;;;3.10;;
75435;SDS011;64014;53.432;14.534;2023-04-07T04:30:40;8.07;;;4.38;;
75435;SDS011;64014;53.432;14.534;2023-04-07T04:33:07;7.25;;;2.85;;
75435;SDS011;64014;53.432;14.534;2023-04-07T04:35:33;7.82;;;3.50;;
75435;SDS011;64014;53.432;14.534;2023-04-07T04:37:59;6.03;;;2.25;;
75435;SDS011;64014;53.432;14.534;2023-04-07T04:40:25;8.88;;;3.78;;
75435;SDS011;64014;53.432;14.534;2023-04-07T04:42:51;5.43;;;2.25;;
75435;SDS011;64014;53.432;14.534;2023-04-07T04:45:17;8.75;;;2.55;;
75435;SDS011;64014;53.432;14.534;2023-04-07T04:47:44;7.50;;;2.90;;
75435;SDS011;64014;53.432;14.534;2023-04-07T04:50:10;10.48;;;3.05;;
75435;SDS011;64014;53.432;14.534;2023-04-07T04:52:37;6.50;;;2.92;;
75435;SDS011;64014;53.432;14.534;2023-04-07T04:55:03;7.22;;;3.20;;
75435;SDS011;64014;53.432;14.534;2023-04-07T04:57:30;5.63;;;2.88;;
75435;SDS011;64014;53.432;14.534;2023-04-07T04:59:56;7.80;;;2.80;;
75435;SDS011;64014;53.432;14.534;2023-04-07T05:02:22;6.95;;;2.20;;
75435;SDS011;64014;53.432;14.534;2023-04-07T05:04:48;6.93;;;2.53;;
75435;SDS011;64014;53.432;14.534;2023-04-07T05:07:14;8.00;;;2.90;;
75435;SDS011;64014;53.432;14.534;2023-04-07T05:09:41;5.78;;;2.42;;
75435;SDS011;64014;53.432;14.534;2023-04-07T05:12:07;8.60;;;2.92;;
75435;SDS011;64014;53.432;14.534;2023-04-07T05:14:33;7.93;;;3.08;;
75435;SDS011;64014;53.432;14.534;2023-04-07T05:17:00;6.22;;;2.53;;
75435;SDS011;64014;53.432;14.534;2023-04-07T05:19:26;6.68;;;2.85;;
75435;SDS011;64014;53.432;14.534;2023-04-07T05:21:53;9.80;;;2.78;;
75435;SDS011;64014;53.432;14.534;2023-04-07T05:24:20;8.13;;;3.65;;
75435;SDS011;64014;53.432;14.534;2023-04-07T05:26:46;7.22;;;2.90;;
75435;SDS011;64014;53.432;14.534;2023-04-07T05:29:12;6.72;;;2.88;;
75435;SDS011;64014;53.432;14.534;2023-04-07T05:31:39;5.95;;;2.83;;
75435;SDS011;64014;53.432;14.534;2023-04-07T05:34:05;10.77;;;4.03;;
75435;SDS011;64014;53.432;14.534;2023-04-07T05:36:32;9.65;;;3.83;;
75435;SDS011;64014;53.432;14.534;2023-04-07T05:38:58;8.85;;;4.00;;
75435;SDS011;64014;53.432;14.534;2023-04-07T05:41:24;12.05;;;3.30;;
75435;SDS011;64014;53.432;14.534;2023-04-07T05:43:51;7.75;;;3.30;;
75435;SDS011;64014;53.432;14.534;2023-04-07T05:46:17;8.52;;;3.58;;
75435;SDS011;64014;53.432;14.534;2023-04-07T05:48:43;8.18;;;3.58;;
75435;SDS011;64014;53.432;14.534;2023-04-07T05:51:09;9.32;;;3.83;;
75435;SDS011;64014;53.432;14.534;2023-04-07T05:53:35;8.45;;;3.75;;
75435;SDS011;64014;53.432;14.534;2023-04-07T05:56:02;14.73;;;4.53;;
75435;SDS011;64014;53.432;14.534;2023-04-07T05:58:28;12.38;;;4.80;;
75435;SDS011;64014;53.432;14.534;2023-04-07T06:00:54;14.82;;;4.55;;
75435;SDS011;64014;53.432;14.534;2023-04-07T06:03:20;7.95;;;3.63;;
75435;SDS011;64014;53.432;14.534;2023-04-07T06:05:46;9.25;;;4.07;;
75435;SDS011;64014;53.432;14.534;2023-04-07T06:08:12;7.45;;;3.55;;
75435;SDS011;64014;53.432;14.534;2023-04-07T06:10:39;9.48;;;3.95;;
75435;SDS011;64014;53.432;14.534;2023-04-07T06:13:08;10.32;;;4.88;;
75435;SDS011;64014;53.432;14.534;2023-04-07T06:15:34;9.60;;;3.75;;
75435;SDS011;64014;53.432;14.534;2023-04-07T06:18:01;7.90;;;3.92;;
75435;SDS011;64014;53.432;14.534;2023-04-07T06:20:27;9.23;;;4.82;;
75435;SDS011;64014;53.432;14.534;2023-04-07T06:22:53;13.10;;;6.85;;
75435;SDS011;64014;53.432;14.534;2023-04-07T06:25:19;13.63;;;7.95;;
75435;SDS011;64014;53.432;14.534;2023-04-07T06:27:45;10.05;;;5.20;;
75435;SDS011;64014;53.432;14.534;2023-04-07T06:30:12;11.02;;;5.93;;
75435;SDS011;64014;53.432;14.534;2023-04-07T06:32:38;10.35;;;4.28;;
75435;SDS011;64014;53.432;14.534;2023-04-07T06:35:04;9.23;;;3.42;;
75435;SDS011;64014;53.432;14.534;2023-04-07T06:37:31;8.32;;;4.47;;
75435;SDS011;64014;53.432;14.534;2023-04-07T06:39:57;10.27;;;4.50;;
75435;SDS011;64014;53.432;14.534;2023-04-07T06:42:23;10.50;;;4.80;;
75435;SDS011;64014;53.432;14.534;2023-04-07T06:44:50;10.43;;;4.50;;
75435;SDS011;64014;53.432;14.534;2023-04-07T06:47:16;10.60;;;3.88;;
75435;SDS011;64014;53.432;14.534;2023-04-07T06:49:42;12.48;;;5.22;;
75435;SDS011;64014;53.432;14.534;2023-04-07T06:52:08;9.38;;;4.30;;
75435;SDS011;64014;53.432;14.534;2023-04-07T06:54:34;8.80;;;3.88;;
75435;SDS011;64014;53.432;14.534;2023-04-07T06:57:00;12.95;;;4.43;;
75435;SDS011;64014;53.432;14.534;2023-04-07T06:59:27;12.90;;;5.60;;
75435;SDS011;64014;53.432;14.534;2023-04-07T07:01:53;12.45;;;5.53;;
75435;SDS011;64014;53.432;14.534;2023-04-07T07:04:19;15.00;;;6.75;;
75435;SDS011;64014;53.432;14.534;2023-04-07T07:06:45;13.15;;;5.82;;
75435;SDS011;64014;53.432;14.534;2023-04-07T07:09:11;12.52;;;5.03;;
75435;SDS011;64014;53.432;14.534;2023-04-07T07:11:37;16.02;;;5.55;;
75435;SDS011;64014;53.432;14.534;2023-04-07T07:14:04;12.85;;;5.95;;
75435;SDS011;64014;53.432;14.534;2023-04-07T07:16:30;12.68;;;5.18;;
75435;SDS011;64014;53.432;14.534;2023-04-07T07:18:56;13.52;;;5.70;;
75435;SDS011;64014;53.432;14.534;2023-04-07T07:21:22;13.15;;;6.05;;
75435;SDS011;64014;53.432;14.534;2023-04-07T07:23:48;15.00;;;7.25;;
75435;SDS011;64014;53.432;14.534;2023-04-07T07:26:15;13.95;;;6.03;;
75435;SDS011;64014;53.432;14.534;2023-04-07T07:28:41;12.27;;;6.30;;
75435;SDS011;64014;53.432;14.534;2023-04-07T07:31:11;13.65;;;7.00;;
75435;SDS011;64014;53.432;14.534;2023-04-07T07:33:38;14.52;;;6.18;;
75435;SDS011;64014;53.432;14.534;2023-04-07T07:36:05;10.93;;;5.95;;
75435;SDS011;64014;53.432;14.534;2023-04-07T07:38:31;12.32;;;7.53;;
75435;SDS011;64014;53.432;14.534;2023-04-07T07:40:58;12.60;;;6.72;;
75435;SDS011;64014;53.432;14.534;2023-04-07T07:43:24;12.02;;;6.03;;
75435;SDS011;64014;53.432;14.534;2023-04-07T07:45:50;11.88;;;5.30;;
75435;SDS011;64014;53.432;14.534;2023-04-07T07:48:16;16.15;;;6.18;;
75435;SDS011;64014;53.432;14.534;2023-04-07T07:50:42;12.98;;;6.57;;
75435;SDS011;64014;53.432;14.534;2023-04-07T07:53:09;16.25;;;6.05;;
75435;SDS011;64014;53.432;14.534;2023-04-07T07:55:36;14.02;;;6.15;;
75435;SDS011;64014;53.432;14.534;2023-04-07T07:58:02;16.67;;;5.65;;
75435;SDS011;64014;53.432;14.534;2023-04-07T08:00:28;14.80;;;6.22;;
75435;SDS011;64014;53.432;14.534;2023-04-07T08:02:54;14.75;;;8.35;;
75435;SDS011;64014;53.432;14.534;2023-04-07T08:05:20;13.18;;;5.70;;
75435;SDS011;64014;53.432;14.534;2023-04-07T08:07:47;13.13;;;5.47;;
75435;SDS011;64014;53.432;14.534;2023-04-07T08:10:13;16.85;;;7.07;;
75435;SDS011;64014;53.432;14.534;2023-04-07T08:12:40;14.32;;;6.85;;
75435;SDS011;64014;53.432;14.534;2023-04-07T08:15:06;16.73;;;8.27;;
75435;SDS011;64014;53.432;14.534;2023-04-07T08:17:34;17.50;;;8.18;;
75435;SDS011;64014;53.432;14.534;2023-04-07T08:20:01;16.52;;;7.38;;
75435;SDS011;64014;53.432;14.534;2023-04-07T08:22:27;18.00;;;7.70;;
75435;SDS011;64014;53.432;14.534;2023-04-07T08:24:54;14.52;;;7.50;;
75435;SDS011;64014;53.432;14.534;2023-04-07T08:27:20;14.90;;;6.90;;
75435;SDS011;64014;53.432;14.534;2023-04-07T08:29:59;17.42;;;7.20;;
75435;SDS011;64014;53.432;14.534;2023-04-07T08:32:32;16.02;;;6.95;;
75435;SDS011;64014;53.432;14.534;2023-04-07T08:34:58;14.57;;;7.32;;
75435;SDS011;64014;53.432;14.534;2023-04-07T08:37:25;11.82;;;5.53;;
75435;SDS011;64014;53.432;14.534;2023-04-07T08:39:51;13.73;;;6.50;;
75435;SDS011;64014;53.432;14.534;2023-04-07T08:42:17;12.70;;;6.45;;
75435;SDS011;64014;53.432;14.534;2023-04-07T08:44:45;13.88;;;6.90;;
75435;SDS011;64014;53.432;14.534;2023-04-07T08:47:12;12.68;;;8.68;;
75435;SDS011;64014;53.432;14.534;2023-04-07T08:49:40;14.15;;;6.53;;
75435;SDS011;64014;53.432;14.534;2023-04-07T08:52:09;14.40;;;6.80;;
75435;SDS011;64014;53.432;14.534;2023-04-07T08:54:36;15.98;;;7.22;;
75435;SDS011;64014;53.432;14.534;2023-04-07T08:57:03;15.95;;;8.15;;
75435;SDS011;64014;53.432;14.534;2023-04-07T08:59:30;15.27;;;7.22;;
75435;SDS011;64014;53.432;14.534;2023-04-07T09:01:57;15.48;;;7.32;;
75435;SDS011;64014;53.432;14.534;2023-04-07T09:04:24;17.60;;;9.15;;
75435;SDS011;64014;53.432;14.534;2023-04-07T09:06:51;14.00;;;7.07;;
75435;SDS011;64014;53.432;14.534;2023-04-07T09:09:17;15.27;;;7.30;;
75435;SDS011;64014;53.432;14.534;2023-04-07T09:11:44;16.77;;;8.40;;
75435;SDS011;64014;53.432;14.534;2023-04-07T09:14:10;20.13;;;8.93;;
75435;SDS011;64014;53.432;14.534;2023-04-07T09:16:37;24.38;;;11.68;;
75435;SDS011;64014;53.432;14.534;2023-04-07T09:19:04;21.67;;;9.20;;
75435;SDS011;64014;53.432;14.534;2023-04-07T09:21:49;19.50;;;9.20;;
75435;SDS011;64014;53.432;14.534;2023-04-07T09:24:20;15.98;;;7.25;;
75435;SDS011;64014;53.432;14.534;2023-04-07T09:26:46;16.33;;;6.65;;
75435;SDS011;64014;53.432;14.534;2023-04-07T09:29:17;16.25;;;7.45;;
75435;SDS011;64014;53.432;14.534;2023-04-07T09:31:47;14.65;;;6.55;;
75435;SDS011;64014;53.432;14.534;2023-04-07T09:34:52;15.05;;;7.43;;
75435;SDS011;64014;53.432;14.534;2023-04-07T09:37:07;14.50;;;7.85;;
75435;SDS011;64014;53.432;14.534;2023-04-07T09:39:36;17.35;;;8.30;;
75435;SDS011;64014;53.432;14.534;2023-04-07T09:42:13;21.50;;;8.65;;
75435;SDS011;64014;53.432;14.534;2023-04-07T09:44:39;15.68;;;9.07;;
75435;SDS011;64014;53.432;14.534;2023-04-07T09:47:05;18.73;;;7.70;;
75435;SDS011;64014;53.432;14.534;2023-04-07T09:49:32;17.40;;;8.90;;
75435;SDS011;64014;53.432;14.534;2023-04-07T09:51:59;15.50;;;9.60;;
75435;SDS011;64014;53.432;14.534;2023-04-07T09:54:35;13.50;;;6.75;;
75435;SDS011;64014;53.432;14.534;2023-04-07T09:57:03;14.15;;;6.35;;
75435;SDS011;64014;53.432;14.534;2023-04-07T09:59:30;42.60;;;21.00;;
75435;SDS011;64014;53.432;14.534;2023-04-07T10:01:56;16.00;;;8.57;;
75435;SDS011;64014;53.432;14.534;2023-04-07T10:04:23;10.90;;;6.80;;
75435;SDS011;64014;53.432;14.534;2023-04-07T10:06:50;13.40;;;7.70;;
75435;SDS011;64014;53.432;14.534;2023-04-07T10:09:17;15.73;;;6.82;;
75435;SDS011;64014;53.432;14.534;2023-04-07T10:11:43;15.00;;;7.50;;
75435;SDS011;64014;53.432;14.534;2023-04-07T10:14:10;22.60;;;10.13;;
75435;SDS011;64014;53.432;14.534;2023-04-07T10:16:36;23.23;;;9.55;;
75435;SDS011;64014;53.432;14.534;2023-04-07T10:19:03;27.35;;;10.77;;
75435;SDS011;64014;53.432;14.534;2023-04-07T10:21:31;22.85;;;12.25;;
75435;SDS011;64014;53.432;14.534;2023-04-07T10:26:45;13.85;;;6.45;;
75435;SDS011;64014;53.432;14.534;2023-04-07T10:29:12;13.00;;;7.07;;
75435;SDS011;64014;53.432;14.534;2023-04-07T10:31:40;16.85;;;8.63;;
75435;SDS011;64014;53.432;14.534;2023-04-07T10:34:06;13.52;;;7.70;;
75435;SDS011;64014;53.432;14.534;2023-04-07T10:36:32;19.42;;;9.57;;
75435;SDS011;64014;53.432;14.534;2023-04-07T10:41:35;20.10;;;9.13;;
75435;SDS011;64014;53.432;14.534;2023-04-07T10:44:03;22.75;;;11.30;;
75435;SDS011;64014;53.432;14.534;2023-04-07T10:49:29;14.77;;;7.57;;
75435;SDS011;64014;53.432;14.534;2023-04-07T10:58:12;18.17;;;9.35;;
75435;SDS011;64014;53.432;14.534;2023-04-07T11:00:38;13.25;;;6.22;;
75435;SDS011;64014;53.432;14.534;2023-04-07T11:03:14;13.32;;;6.85;;
75435;SDS011;64014;53.432;14.534;2023-04-07T11:05:40;15.80;;;9.90;;
75435;SDS011;64014;53.432;14.534;2023-04-07T11:08:06;10.38;;;4.82;;
75435;SDS011;64014;53.432;14.534;2023-04-07T11:10:33;12.65;;;6.22;;
75435;SDS011;64014;53.432;14.534;2023-04-07T11:15:26;15.73;;;8.93;;
75435;SDS011;64014;53.432;14.534;2023-04-07T11:18:05;14.48;;;7.03;;
75435;SDS011;64014;53.432;14.534;2023-04-07T11:20:39;15.27;;;7.20;;
75435;SDS011;64014;53.432;14.534;2023-04-07T11:23:05;16.90;;;8.90;;
75435;SDS011;64014;53.432;14.534;2023-04-07T11:25:31;11.95;;;5.93;;
75435;SDS011;64014;53.432;14.534;2023-04-07T11:27:59;10.82;;;5.05;;
75435;SDS011;64014;53.432;14.534;2023-04-07T11:30:25;9.85;;;5.18;;
75435;SDS011;64014;53.432;14.534;2023-04-07T11:32:52;11.48;;;4.65;;
75435;SDS011;64014;53.432;14.534;2023-04-07T11:35:18;10.50;;;5.55;;
75435;SDS011;64014;53.432;14.534;2023-04-07T11:37:44;11.60;;;6.40;;
75435;SDS011;64014;53.432;14.534;2023-04-07T11:40:11;14.60;;;8.57;;
75435;SDS011;64014;53.432;14.534;2023-04-07T11:42:40;7.93;;;4.63;;
75435;SDS011;64014;53.432;14.534;2023-04-07T11:45:17;7.97;;;3.55;;
75435;SDS011;64014;53.432;14.534;2023-04-07T11:47:46;6.93;;;4.05;;
75435;SDS011;64014;53.432;14.534;2023-04-07T11:50:14;13.75;;;6.22;;
75435;SDS011;64014;53.432;14.534;2023-04-07T11:52:41;7.97;;;3.78;;
75435;SDS011;64014;53.432;14.534;2023-04-07T11:55:18;13.18;;;7.18;;
75435;SDS011;64014;53.432;14.534;2023-04-07T11:57:45;10.52;;;5.15;;
75435;SDS011;64014;53.432;14.534;2023-04-07T12:00:12;6.90;;;3.17;;
75435;SDS011;64014;53.432;14.534;2023-04-07T12:02:39;12.65;;;9.07;;
75435;SDS011;64014;53.432;14.534;2023-04-07T12:05:06;17.23;;;8.65;;
75435;SDS011;64014;53.432;14.534;2023-04-07T12:07:35;6.82;;;3.95;;
75435;SDS011;64014;53.432;14.534;2023-04-07T12:10:18;7.47;;;5.10;;
75435;SDS011;64014;53.432;14.534;2023-04-07T12:12:44;8.07;;;4.15;;
75435;SDS011;64014;53.432;14.534;2023-04-07T12:15:11;8.45;;;6.63;;
75435;SDS011;64014;53.432;14.534;2023-04-07T12:17:44;10.57;;;5.68;;
75435;SDS011;64014;53.432;14.534;2023-04-07T12:20:11;8.00;;;3.10;;
75435;SDS011;64014;53.432;14.534;2023-04-07T12:22:38;8.40;;;4.28;;
75435;SDS011;64014;53.432;14.534;2023-04-07T12:25:04;6.85;;;3.35;;
75435;SDS011;64014;53.432;14.534;2023-04-07T12:27:30;6.20;;;3.30;;
75435;SDS011;64014;53.432;14.534;2023-04-07T12:29:57;6.13;;;2.70;;
75435;SDS011;64014;53.432;14.534;2023-04-07T12:32:23;6.13;;;3.47;;
75435;SDS011;64014;53.432;14.534;2023-04-07T12:34:49;6.40;;;3.13;;
75435;SDS011;64014;53.432;14.534;2023-04-07T12:37:16;5.03;;;2.25;;
75435;SDS011;64014;53.432;14.534;2023-04-07T12:39:42;6.90;;;2.97;;
75435;SDS011;64014;53.432;14.534;2023-04-07T12:42:08;10.82;;;6.07;;
75435;SDS011;64014;53.432;14.534;2023-04-07T12:44:36;11.23;;;6.22;;
75435;SDS011;64014;53.432;14.534;2023-04-07T12:47:02;12.45;;;5.72;;
75435;SDS011;64014;53.432;14.534;2023-04-07T12:49:29;6.97;;;2.95;;
75435;SDS011;64014;53.432;14.534;2023-04-07T12:51:55;8.52;;;3.35;;
75435;SDS011;64014;53.432;14.534;2023-04-07T12:54:22;10.07;;;5.65;;
75435;SDS011;64014;53.432;14.534;2023-04-07T12:56:48;5.25;;;2.72;;
75435;SDS011;64014;53.432;14.534;2023-04-07T12:59:14;5.53;;;2.67;;
75435;SDS011;64014;53.432;14.534;2023-04-07T13:01:40;12.90;;;7.78;;
75435;SDS011;64014;53.432;14.534;2023-04-07T13:04:07;7.10;;;3.08;;
75435;SDS011;64014;53.432;14.534;2023-04-07T13:06:33;11.27;;;5.95;;
75435;SDS011;64014;53.432;14.534;2023-04-07T13:09:00;10.70;;;6.18;;
75435;SDS011;64014;53.432;14.534;2023-04-07T13:11:26;11.30;;;6.43;;
75435;SDS011;64014;53.432;14.534;2023-04-07T13:13:52;13.18;;;7.45;;
75435;SDS011;64014;53.432;14.534;2023-04-07T13:16:18;9.60;;;6.82;;
75435;SDS011;64014;53.432;14.534;2023-04-07T13:18:44;12.23;;;6.20;;
75435;SDS011;64014;53.432;14.534;2023-04-07T13:21:11;12.30;;;5.97;;
75435;SDS011;64014;53.432;14.534;2023-04-07T13:23:37;9.65;;;5.13;;
75435;SDS011;64014;53.432;14.534;2023-04-07T13:26:03;13.93;;;6.68;;
75435;SDS011;64014;53.432;14.534;2023-04-07T13:28:30;19.02;;;9.55;;
75435;SDS011;64014;53.432;14.534;2023-04-07T13:30:56;16.55;;;9.85;;
75435;SDS011;64014;53.432;14.534;2023-04-07T13:33:22;15.50;;;8.30;;
75435;SDS011;64014;53.432;14.534;2023-04-07T13:35:49;35.97;;;16.13;;
75435;SDS011;64014;53.432;14.534;2023-04-07T13:38:15;14.30;;;8.60;;
75435;SDS011;64014;53.432;14.534;2023-04-07T13:40:41;13.07;;;7.55;;
75435;SDS011;64014;53.432;14.534;2023-04-07T13:43:08;10.40;;;5.63;;
75435;SDS011;64014;53.432;14.534;2023-04-07T13:45:36;12.50;;;7.20;;
75435;SDS011;64014;53.432;14.534;2023-04-07T13:48:02;12.50;;;6.97;;
75435;SDS011;64014;53.432;14.534;2023-04-07T13:50:29;12.93;;;6.30;;
75435;SDS011;64014;53.432;14.534;2023-04-07T13:52:55;15.85;;;12.90;;
75435;SDS011;64014;53.432;14.534;2023-04-07T13:55:21;17.08;;;10.25;;
75435;SDS011;64014;53.432;14.534;2023-04-07T13:57:48;22.60;;;14.45;;
75435;SDS011;64014;53.432;14.534;2023-04-07T14:00:15;20.48;;;11.20;;
75435;SDS011;64014;53.432;14.534;2023-04-07T14:02:41;11.40;;;7.20;;
75435;SDS011;64014;53.432;14.534;2023-04-07T14:05:09;13.55;;;7.07;;
75435;SDS011;64014;53.432;14.534;2023-04-07T14:07:36;21.88;;;10.77;;
75435;SDS011;64014;53.432;14.534;2023-04-07T14:10:02;20.88;;;10.23;;
75435;SDS011;64014;53.432;14.534;2023-04-07T14:12:28;16.05;;;8.23;;
75435;SDS011;64014;53.432;14.534;2023-04-07T14:14:54;19.40;;;10.80;;
75435;SDS011;64014;53.432;14.534;2023-04-07T14:17:21;21.38;;;10.38;;
75435;SDS011;64014;53.432;14.534;2023-04-07T14:19:47;80.90;;;31.88;;
75435;SDS011;64014;53.432;14.534;2023-04-07T14:22:14;19.40;;;11.45;;
75435;SDS011;64014;53.432;14.534;2023-04-07T14:24:40;14.57;;;8.02;;
75435;SDS011;64014;53.432;14.534;2023-04-07T14:27:06;19.35;;;10.93;;
75435;SDS011;64014;53.432;14.534;2023-04-07T14:29:32;17.77;;;8.80;;
75435;SDS011;64014;53.432;14.534;2023-04-07T14:31:59;17.08;;;8.73;;
75435;SDS011;64014;53.432;14.534;2023-04-07T14:34:25;22.70;;;10.25;;
75435;SDS011;64014;53.432;14.534;2023-04-07T14:36:52;19.25;;;8.38;;
75435;SDS011;64014;53.432;14.534;2023-04-07T14:39:18;19.02;;;7.95;;
75435;SDS011;64014;53.432;14.534;2023-04-07T14:41:44;15.93;;;9.18;;
75435;SDS011;64014;53.432;14.534;2023-04-07T14:44:12;18.23;;;10.15;;
75435;SDS011;64014;53.432;14.534;2023-04-07T14:46:38;18.27;;;9.00;;
75435;SDS011;64014;53.432;14.534;2023-04-07T14:49:05;17.17;;;9.15;;
75435;SDS011;64014;53.432;14.534;2023-04-07T14:51:32;12.18;;;6.15;;